sensor_id;sensor_type;location;lat;lon;timestamp;P1;durP1;ratioP1;P2;durP2;ratioP2
21099;SDS011;10708;50.824;4.408;2023-03-01T00:04:42;101.25;;;95.32;;
21099;SDS011;10708;50.824;4.408;2023-03-01T00:09:44;110.28;;;103.95;;
21099;SDS011;10708;50.824;4.408;2023-03-01T00:14:47;126.53;;;119.35;;
21099;SDS011;10708;50.824;4.408;2023-03-01T00:19:50;142.23;;;134.20;;
21099;SDS011;10708;50.824;4.408;2023-03-01T00:24:53;114.68;;;108.15;;
21099;SDS011;10708;50.824;4.408;2023-03-01T00:29:55;111.25;;;104.97;;
21099;SDS011;10708;50.824;4.408;2023-03-01T00:34:58;90.97;;;85.63;;
21099;SDS011;10708;50.824;4.408;2023-03-01T00:40:01;94.25;;;88.68;;
21099;SDS011;10708;50.824;4.408;2023-03-01T00:45:07;91.20;;;85.78;;
21099;SDS011;10708;50.824;4.408;2023-03-01T00:50:11;98.88;;;93.18;;
21099;SDS011;10708;50.824;4.408;2023-03-01T00:55:14;131.03;;;123.63;;
21099;SDS011;10708;50.824;4.408;2023-03-01T01:00:16;230.07;;;217.60;;
21099;SDS011;10708;50.824;4.408;2023-03-01T01:05:21;269.13;;;254.43;;
21099;SDS011;10708;50.824;4.408;2023-03-01T01:10:23;280.53;;;265.00;;
21099;SDS011;10708;50.824;4.408;2023-03-01T01:15:25;297.92;;;281.45;;
21099;SDS011;10708;50.824;4.408;2023-03-01T01:20:29;332.90;;;314.43;;
21099;SDS011;10708;50.824;4.408;2023-03-01T01:25:33;316.23;;;298.58;;
21099;SDS011;10708;50.824;4.408;2023-03-01T01:30:36;243.63;;;230.02;;
21099;SDS011;10708;50.824;4.408;2023-03-01T01:35:40;83.30;;;78.43;;
21099;SDS011;10708;50.824;4.408;2023-03-01T01:40:43;168.63;;;159.13;;
21099;SDS011;10708;50.824;4.408;2023-03-01T01:45:45;221.90;;;209.82;;
21099;SDS011;10708;50.824;4.408;2023-03-01T01:50:51;236.52;;;223.70;;
21099;SDS011;10708;50.824;4.408;2023-03-01T01:55:58;211.70;;;200.38;;
21099;SDS011;10708;50.824;4.408;2023-03-01T02:01:03;160.70;;;151.75;;
21099;SDS011;10708;50.824;4.408;2023-03-01T02:06:10;133.40;;;125.85;;
21099;SDS011;10708;50.824;4.408;2023-03-01T02:11:15;149.82;;;141.50;;
21099;SDS011;10708;50.824;4.408;2023-03-01T02:16:19;141.00;;;133.13;;
21099;SDS011;10708;50.824;4.408;2023-03-01T02:21:27;130.23;;;122.85;;
21099;SDS011;10708;50.824;4.408;2023-03-01T02:26:39;123.38;;;116.32;;
21099;SDS011;10708;50.824;4.408;2023-03-01T02:31:45;87.10;;;81.70;;
21099;SDS011;10708;50.824;4.408;2023-03-01T02:36:49;103.53;;;97.43;;
21099;SDS011;10708;50.824;4.408;2023-03-01T02:41:56;68.67;;;63.97;;
21099;SDS011;10708;50.824;4.408;2023-03-01T02:47:02;67.28;;;62.97;;
21099;SDS011;10708;50.824;4.408;2023-03-01T02:52:21;103.67;;;97.63;;
21099;SDS011;10708;50.824;4.408;2023-03-01T02:57:46;103.23;;;97.20;;
21099;SDS011;10708;50.824;4.408;2023-03-01T03:02:53;114.15;;;107.57;;
21099;SDS011;10708;50.824;4.408;2023-03-01T03:07:57;100.53;;;94.68;;
21099;SDS011;10708;50.824;4.408;2023-03-01T03:13:02;96.30;;;90.78;;
21099;SDS011;10708;50.824;4.408;2023-03-01T03:18:09;178.05;;;168.25;;
21099;SDS011;10708;50.824;4.408;2023-03-01T03:23:12;141.40;;;133.57;;
21099;SDS011;10708;50.824;4.408;2023-03-01T03:28:15;152.20;;;143.80;;
21099;SDS011;10708;50.824;4.408;2023-03-01T03:33:19;121.60;;;114.57;;
21099;SDS011;10708;50.824;4.408;2023-03-01T03:38:21;147.38;;;138.98;;
21099;SDS011;10708;50.824;4.408;2023-03-01T03:43:24;144.43;;;136.23;;
21099;SDS011;10708;50.824;4.408;2023-03-01T03:48:31;75.35;;;70.78;;
21099;SDS011;10708;50.824;4.408;2023-03-01T03:53:35;97.80;;;92.05;;
21099;SDS011;10708;50.824;4.408;2023-03-01T03:58:37;129.73;;;122.43;;
21099;SDS011;10708;50.824;4.408;2023-03-01T04:03:41;121.82;;;114.75;;
21099;SDS011;10708;50.824;4.408;2023-03-01T04:08:47;132.73;;;125.07;;
21099;SDS011;10708;50.824;4.408;2023-03-01T04:13:52;196.88;;;185.55;;
21099;SDS011;10708;50.824;4.408;2023-03-01T04:18:56;159.52;;;150.10;;
21099;SDS011;10708;50.824;4.408;2023-03-01T04:24:00;180.27;;;169.88;;
21099;SDS011;10708;50.824;4.408;2023-03-01T04:29:04;184.63;;;174.10;;
21099;SDS011;10708;50.824;4.408;2023-03-01T04:34:07;171.55;;;161.73;;
21099;SDS011;10708;50.824;4.408;2023-03-01T04:39:10;176.60;;;166.75;;
21099;SDS011;10708;50.824;4.408;2023-03-01T04:44:13;109.25;;;103.00;;
21099;SDS011;10708;50.824;4.408;2023-03-01T04:49:17;118.07;;;111.27;;
21099;SDS011;10708;50.824;4.408;2023-03-01T04:54:19;159.53;;;150.60;;
21099;SDS011;10708;50.824;4.408;2023-03-01T04:59:21;217.80;;;206.00;;
21099;SDS011;10708;50.824;4.408;2023-03-01T05:04:25;202.55;;;191.23;;
21099;SDS011;10708;50.824;4.408;2023-03-01T05:09:28;224.95;;;212.65;;
21099;SDS011;10708;50.824;4.408;2023-03-01T05:14:30;174.93;;;165.30;;
21099;SDS011;10708;50.824;4.408;2023-03-01T05:19:34;170.77;;;161.07;;
21099;SDS011;10708;50.824;4.408;2023-03-01T05:24:37;173.93;;;164.27;;
21099;SDS011;10708;50.824;4.408;2023-03-01T05:29:39;202.18;;;191.02;;
21099;SDS011;10708;50.824;4.408;2023-03-01T05:34:43;199.30;;;188.35;;
21099;SDS011;10708;50.824;4.408;2023-03-01T05:39:46;202.52;;;191.43;;
21099;SDS011;10708;50.824;4.408;2023-03-01T05:44:50;177.27;;;167.02;;
21099;SDS011;10708;50.824;4.408;2023-03-01T05:49:56;111.85;;;105.20;;
21099;SDS011;10708;50.824;4.408;2023-03-01T05:55:01;129.15;;;121.57;;
21099;SDS011;10708;50.824;4.408;2023-03-01T06:00:06;183.40;;;172.90;;
21099;SDS011;10708;50.824;4.408;2023-03-01T06:05:12;126.47;;;119.07;;
21099;SDS011;10708;50.824;4.408;2023-03-01T06:10:18;83.85;;;78.53;;
21099;SDS011;10708;50.824;4.408;2023-03-01T06:15:21;81.80;;;76.55;;
21099;SDS011;10708;50.824;4.408;2023-03-01T06:20:26;93.97;;;88.10;;
21099;SDS011;10708;50.824;4.408;2023-03-01T06:25:29;79.23;;;73.97;;
21099;SDS011;10708;50.824;4.408;2023-03-01T06:30:32;88.00;;;82.50;;
21099;SDS011;10708;50.824;4.408;2023-03-01T06:35:37;72.30;;;67.70;;
21099;SDS011;10708;50.824;4.408;2023-03-01T06:40:39;79.27;;;74.17;;
21099;SDS011;10708;50.824;4.408;2023-03-01T06:45:43;81.65;;;76.55;;
21099;SDS011;10708;50.824;4.408;2023-03-01T06:50:47;70.68;;;65.90;;
21099;SDS011;10708;50.824;4.408;2023-03-01T06:55:53;86.75;;;81.05;;
21099;SDS011;10708;50.824;4.408;2023-03-01T07:00:56;84.45;;;78.82;;
21099;SDS011;10708;50.824;4.408;2023-03-01T07:06:00;107.22;;;100.68;;
21099;SDS011;10708;50.824;4.408;2023-03-01T07:11:02;116.05;;;109.28;;
21099;SDS011;10708;50.824;4.408;2023-03-01T07:16:05;130.95;;;122.93;;
21099;SDS011;10708;50.824;4.408;2023-03-01T07:21:09;138.35;;;130.10;;
21099;SDS011;10708;50.824;4.408;2023-03-01T07:26:14;137.27;;;129.37;;
21099;SDS011;10708;50.824;4.408;2023-03-01T07:31:16;112.80;;;106.00;;
21099;SDS011;10708;50.824;4.408;2023-03-01T07:36:20;139.88;;;131.63;;
21099;SDS011;10708;50.824;4.408;2023-03-01T07:41:23;149.48;;;140.98;;
21099;SDS011;10708;50.824;4.408;2023-03-01T07:46:26;332.88;;;314.65;;
21099;SDS011;10708;50.824;4.408;2023-03-01T07:51:30;161.07;;;151.85;;
21099;SDS011;10708;50.824;4.408;2023-03-01T07:56:32;139.18;;;131.00;;
21099;SDS011;10708;50.824;4.408;2023-03-01T08:01:34;108.18;;;101.88;;
21099;SDS011;10708;50.824;4.408;2023-03-01T08:06:38;129.97;;;122.10;;
21099;SDS011;10708;50.824;4.408;2023-03-01T08:11:40;108.13;;;101.83;;
21099;SDS011;10708;50.824;4.408;2023-03-01T08:16:43;186.68;;;175.85;;
21099;SDS011;10708;50.824;4.408;2023-03-01T08:21:46;141.00;;;132.73;;
21099;SDS011;10708;50.824;4.408;2023-03-01T08:26:49;171.87;;;162.33;;
21099;SDS011;10708;50.824;4.408;2023-03-01T08:31:51;252.82;;;238.82;;
21099;SDS011;10708;50.824;4.408;2023-03-01T08:36:55;155.02;;;146.20;;
21099;SDS011;10708;50.824;4.408;2023-03-01T08:41:57;71.75;;;67.15;;
21099;SDS011;10708;50.824;4.408;2023-03-01T08:47:00;70.57;;;65.85;;
21099;SDS011;10708;50.824;4.408;2023-03-01T08:52:05;92.95;;;87.15;;
21099;SDS011;10708;50.824;4.408;2023-03-01T08:57:07;101.70;;;95.50;;
21099;SDS011;10708;50.824;4.408;2023-03-01T09:02:11;69.27;;;65.00;;
21099;SDS011;10708;50.824;4.408;2023-03-01T09:07:16;79.35;;;74.38;;
21099;SDS011;10708;50.824;4.408;2023-03-01T09:12:18;125.30;;;117.93;;
21099;SDS011;10708;50.824;4.408;2023-03-01T09:17:21;81.80;;;76.57;;
21099;SDS011;10708;50.824;4.408;2023-03-01T09:22:25;145.38;;;136.98;;
21099;SDS011;10708;50.824;4.408;2023-03-01T09:27:28;162.03;;;152.63;;
21099;SDS011;10708;50.824;4.408;2023-03-01T09:32:30;105.55;;;99.15;;
21099;SDS011;10708;50.824;4.408;2023-03-01T09:37:34;142.75;;;134.55;;
21099;SDS011;10708;50.824;4.408;2023-03-01T09:42:38;188.40;;;177.55;;
21099;SDS011;10708;50.824;4.408;2023-03-01T09:47:51;260.95;;;246.27;;
21099;SDS011;10708;50.824;4.408;2023-03-01T09:53:00;262.45;;;247.98;;
21099;SDS011;10708;50.824;4.408;2023-03-01T09:58:06;297.35;;;280.85;;
21099;SDS011;10708;50.824;4.408;2023-03-01T10:03:31;169.57;;;159.80;;
21099;SDS011;10708;50.824;4.408;2023-03-01T10:08:40;195.23;;;184.20;;
21099;SDS011;10708;50.824;4.408;2023-03-01T10:13:45;276.27;;;260.60;;
21099;SDS011;10708;50.824;4.408;2023-03-01T10:18:54;281.60;;;265.25;;
21099;SDS011;10708;50.824;4.408;2023-03-01T10:24:04;290.87;;;274.43;;
21099;SDS011;10708;50.824;4.408;2023-03-01T10:29:14;265.98;;;251.30;;
21099;SDS011;10708;50.824;4.408;2023-03-01T10:34:17;229.00;;;216.55;;
21099;SDS011;10708;50.824;4.408;2023-03-01T10:39:23;251.27;;;237.50;;
21099;SDS011;10708;50.824;4.408;2023-03-01T10:44:38;250.95;;;236.43;;
21099;SDS011;10708;50.824;4.408;2023-03-01T10:49:56;234.98;;;221.93;;
21099;SDS011;10708;50.824;4.408;2023-03-01T10:55:04;240.45;;;227.27;;
21099;SDS011;10708;50.824;4.408;2023-03-01T11:00:28;229.73;;;216.80;;
21099;SDS011;10708;50.824;4.408;2023-03-01T11:05:31;188.10;;;176.80;;
21099;SDS011;10708;50.824;4.408;2023-03-01T11:10:35;205.82;;;194.25;;
21099;SDS011;10708;50.824;4.408;2023-03-01T11:15:38;148.85;;;140.20;;
21099;SDS011;10708;50.824;4.408;2023-03-01T11:20:41;287.02;;;271.48;;
21099;SDS011;10708;50.824;4.408;2023-03-01T11:25:46;269.65;;;254.50;;
21099;SDS011;10708;50.824;4.408;2023-03-01T11:30:53;106.85;;;100.45;;
21099;SDS011;10708;50.824;4.408;2023-03-01T11:36:00;107.38;;;101.15;;
21099;SDS011;10708;50.824;4.408;2023-03-01T11:41:11;149.55;;;141.02;;
21099;SDS011;10708;50.824;4.408;2023-03-01T11:52:01;120.03;;;112.75;;
21099;SDS011;10708;50.824;4.408;2023-03-01T11:57:13;91.93;;;86.63;;
21099;SDS011;10708;50.824;4.408;2023-03-01T12:02:33;70.65;;;66.10;;
21099;SDS011;10708;50.824;4.408;2023-03-01T12:07:51;75.80;;;70.78;;
21099;SDS011;10708;50.824;4.408;2023-03-01T12:13:11;136.18;;;128.23;;
21099;SDS011;10708;50.824;4.408;2023-03-01T12:24:35;128.93;;;121.60;;
21099;SDS011;10708;50.824;4.408;2023-03-01T12:29:51;152.90;;;143.77;;
21099;SDS011;10708;50.824;4.408;2023-03-01T12:35:11;116.65;;;110.05;;
21099;SDS011;10708;50.824;4.408;2023-03-01T12:40:30;135.43;;;127.93;;
21099;SDS011;10708;50.824;4.408;2023-03-01T12:45:43;52.10;;;48.73;;
21099;SDS011;10708;50.824;4.408;2023-03-01T12:50:53;166.00;;;156.80;;
21099;SDS011;10708;50.824;4.408;2023-03-01T12:55:59;85.03;;;80.03;;
21099;SDS011;10708;50.824;4.408;2023-03-01T13:01:11;74.00;;;69.40;;
21099;SDS011;10708;50.824;4.408;2023-03-01T13:06:23;62.13;;;58.27;;
21099;SDS011;10708;50.824;4.408;2023-03-01T13:11:30;66.38;;;62.22;;
21099;SDS011;10708;50.824;4.408;2023-03-01T13:16:40;82.93;;;78.00;;
21099;SDS011;10708;50.824;4.408;2023-03-01T13:21:45;62.40;;;58.50;;
21099;SDS011;10708;50.824;4.408;2023-03-01T13:27:09;55.53;;;51.78;;
21099;SDS011;10708;50.824;4.408;2023-03-01T13:32:20;96.53;;;91.00;;
21099;SDS011;10708;50.824;4.408;2023-03-01T13:37:28;135.90;;;128.25;;
21099;SDS011;10708;50.824;4.408;2023-03-01T13:42:37;188.07;;;177.75;;
21099;SDS011;10708;50.824;4.408;2023-03-01T13:47:48;178.60;;;168.82;;
21099;SDS011;10708;50.824;4.408;2023-03-01T13:52:56;151.45;;;143.05;;
21099;SDS011;10708;50.824;4.408;2023-03-01T13:58:01;66.73;;;62.80;;
21099;SDS011;10708;50.824;4.408;2023-03-01T14:03:11;56.70;;;53.10;;
21099;SDS011;10708;50.824;4.408;2023-03-01T14:08:19;95.40;;;89.72;;
21099;SDS011;10708;50.824;4.408;2023-03-01T14:13:26;68.70;;;64.30;;
21099;SDS011;10708;50.824;4.408;2023-03-01T14:18:41;59.07;;;55.20;;
21099;SDS011;10708;50.824;4.408;2023-03-01T14:23:49;123.00;;;115.88;;
21099;SDS011;10708;50.824;4.408;2023-03-01T14:28:51;101.85;;;96.15;;
21099;SDS011;10708;50.824;4.408;2023-03-01T14:33:55;106.68;;;100.80;;
21099;SDS011;10708;50.824;4.408;2023-03-01T14:38:58;78.30;;;73.32;;
21099;SDS011;10708;50.824;4.408;2023-03-01T14:44:06;116.25;;;109.85;;
21099;SDS011;10708;50.824;4.408;2023-03-01T14:49:16;120.77;;;113.97;;
21099;SDS011;10708;50.824;4.408;2023-03-01T14:54:23;104.88;;;99.03;;
21099;SDS011;10708;50.824;4.408;2023-03-01T14:59:27;121.10;;;114.47;;
21099;SDS011;10708;50.824;4.408;2023-03-01T15:04:31;128.15;;;121.05;;
21099;SDS011;10708;50.824;4.408;2023-03-01T15:09:34;111.32;;;105.03;;
21099;SDS011;10708;50.824;4.408;2023-03-01T15:14:39;134.63;;;127.13;;
21099;SDS011;10708;50.824;4.408;2023-03-01T15:19:46;136.85;;;129.38;;
21099;SDS011;10708;50.824;4.408;2023-03-01T15:24:49;136.90;;;129.60;;
21099;SDS011;10708;50.824;4.408;2023-03-01T15:29:52;139.63;;;132.03;;
21099;SDS011;10708;50.824;4.408;2023-03-01T15:34:59;133.95;;;126.65;;
21099;SDS011;10708;50.824;4.408;2023-03-01T15:40:17;132.43;;;125.28;;
21099;SDS011;10708;50.824;4.408;2023-03-01T15:45:23;142.98;;;135.18;;
21099;SDS011;10708;50.824;4.408;2023-03-01T15:50:29;143.30;;;135.40;;
21099;SDS011;10708;50.824;4.408;2023-03-01T15:55:34;144.80;;;137.00;;
21099;SDS011;10708;50.824;4.408;2023-03-01T16:00:36;147.00;;;139.02;;
21099;SDS011;10708;50.824;4.408;2023-03-01T16:05:41;150.38;;;142.25;;
21099;SDS011;10708;50.824;4.408;2023-03-01T16:10:43;152.05;;;143.68;;
21099;SDS011;10708;50.824;4.408;2023-03-01T16:15:48;137.07;;;129.43;;
21099;SDS011;10708;50.824;4.408;2023-03-01T16:20:53;106.18;;;99.95;;
21099;SDS011;10708;50.824;4.408;2023-03-01T16:25:58;104.60;;;98.80;;
21099;SDS011;10708;50.824;4.408;2023-03-01T16:31:01;59.97;;;56.28;;
21099;SDS011;10708;50.824;4.408;2023-03-01T16:36:10;52.67;;;49.40;;
21099;SDS011;10708;50.824;4.408;2023-03-01T16:41:14;58.83;;;55.13;;
21099;SDS011;10708;50.824;4.408;2023-03-01T16:46:19;54.05;;;50.63;;
21099;SDS011;10708;50.824;4.408;2023-03-01T16:51:24;61.30;;;57.30;;
21099;SDS011;10708;50.824;4.408;2023-03-01T16:56:27;79.65;;;74.95;;
21099;SDS011;10708;50.824;4.408;2023-03-01T17:01:32;95.75;;;90.45;;
21099;SDS011;10708;50.824;4.408;2023-03-01T17:06:39;118.95;;;112.47;;
21099;SDS011;10708;50.824;4.408;2023-03-01T17:11:41;109.82;;;103.53;;
21099;SDS011;10708;50.824;4.408;2023-03-01T17:16:44;101.10;;;95.53;;
21099;SDS011;10708;50.824;4.408;2023-03-01T17:21:48;107.07;;;100.97;;
21099;SDS011;10708;50.824;4.408;2023-03-01T17:26:51;111.63;;;105.53;;
21099;SDS011;10708;50.824;4.408;2023-03-01T17:31:53;123.55;;;116.55;;
21099;SDS011;10708;50.824;4.408;2023-03-01T17:36:57;140.98;;;133.07;;
21099;SDS011;10708;50.824;4.408;2023-03-01T17:42:00;160.48;;;151.45;;
21099;SDS011;10708;50.824;4.408;2023-03-01T17:47:04;182.60;;;172.35;;
21099;SDS011;10708;50.824;4.408;2023-03-01T17:52:08;196.95;;;185.80;;
21099;SDS011;10708;50.824;4.408;2023-03-01T17:57:11;232.50;;;219.90;;
21099;SDS011;10708;50.824;4.408;2023-03-01T18:02:14;230.13;;;217.38;;
21099;SDS011;10708;50.824;4.408;2023-03-01T18:07:20;251.73;;;238.03;;
21099;SDS011;10708;50.824;4.408;2023-03-01T18:12:22;226.83;;;214.30;;
21099;SDS011;10708;50.824;4.408;2023-03-01T18:17:24;226.23;;;213.93;;
21099;SDS011;10708;50.824;4.408;2023-03-01T18:22:28;271.20;;;256.33;;
21099;SDS011;10708;50.824;4.408;2023-03-01T18:27:32;209.95;;;198.25;;
21099;SDS011;10708;50.824;4.408;2023-03-01T18:32:36;243.27;;;230.10;;
21099;SDS011;10708;50.824;4.408;2023-03-01T18:37:40;278.50;;;263.15;;
21099;SDS011;10708;50.824;4.408;2023-03-01T18:42:43;319.23;;;301.55;;
21099;SDS011;10708;50.824;4.408;2023-03-01T18:47:45;336.00;;;317.43;;
21099;SDS011;10708;50.824;4.408;2023-03-01T18:52:50;320.65;;;303.15;;
21099;SDS011;10708;50.824;4.408;2023-03-01T18:57:53;342.17;;;323.17;;
21099;SDS011;10708;50.824;4.408;2023-03-01T19:02:55;388.27;;;366.15;;
21099;SDS011;10708;50.824;4.408;2023-03-01T19:08:00;410.80;;;386.80;;
21099;SDS011;10708;50.824;4.408;2023-03-01T19:13:02;388.17;;;366.30;;
21099;SDS011;10708;50.824;4.408;2023-03-01T19:18:05;418.83;;;394.70;;
21099;SDS011;10708;50.824;4.408;2023-03-01T19:23:10;404.70;;;381.90;;
21099;SDS011;10708;50.824;4.408;2023-03-01T19:28:13;423.83;;;399.40;;
21099;SDS011;10708;50.824;4.408;2023-03-01T19:33:15;451.42;;;424.63;;
21099;SDS011;10708;50.824;4.408;2023-03-01T19:38:19;473.50;;;445.13;;
21099;SDS011;10708;50.824;4.408;2023-03-01T19:43:22;500.23;;;469.52;;
21099;SDS011;10708;50.824;4.408;2023-03-01T19:48:25;499.25;;;468.55;;
21099;SDS011;10708;50.824;4.408;2023-03-01T19:53:29;496.63;;;466.00;;
21099;SDS011;10708;50.824;4.408;2023-03-01T19:58:31;489.23;;;459.73;;
21099;SDS011;10708;50.824;4.408;2023-03-01T20:03:34;467.48;;;439.65;;
21099;SDS011;10708;50.824;4.408;2023-03-01T20:08:38;380.35;;;358.70;;
21099;SDS011;10708;50.824;4.408;2023-03-01T20:13:40;393.38;;;370.65;;
21099;SDS011;10708;50.824;4.408;2023-03-01T20:18:43;382.35;;;360.48;;
21099;SDS011;10708;50.824;4.408;2023-03-01T20:23:47;344.17;;;324.58;;
21099;SDS011;10708;50.824;4.408;2023-03-01T20:28:50;291.42;;;275.58;;
21099;SDS011;10708;50.824;4.408;2023-03-01T20:33:54;251.53;;;237.50;;
21099;SDS011;10708;50.824;4.408;2023-03-01T20:38:59;170.57;;;160.50;;
21099;SDS011;10708;50.824;4.408;2023-03-01T20:44:01;181.13;;;170.48;;
21099;SDS011;10708;50.824;4.408;2023-03-01T20:49:06;178.23;;;167.70;;
21099;SDS011;10708;50.824;4.408;2023-03-01T20:54:11;186.65;;;175.30;;
21099;SDS011;10708;50.824;4.408;2023-03-01T20:59:13;191.02;;;179.77;;
21099;SDS011;10708;50.824;4.408;2023-03-01T21:04:16;204.30;;;192.60;;
21099;SDS011;10708;50.824;4.408;2023-03-01T21:09:20;222.65;;;210.25;;
21099;SDS011;10708;50.824;4.408;2023-03-01T21:14:23;224.00;;;210.80;;
21099;SDS011;10708;50.824;4.408;2023-03-01T21:19:25;192.13;;;180.85;;
21099;SDS011;10708;50.824;4.408;2023-03-01T21:24:29;171.65;;;161.52;;
21099;SDS011;10708;50.824;4.408;2023-03-01T21:29:32;162.32;;;152.68;;
21099;SDS011;10708;50.824;4.408;2023-03-01T21:34:34;162.88;;;153.27;;
21099;SDS011;10708;50.824;4.408;2023-03-01T21:39:39;170.07;;;160.05;;
21099;SDS011;10708;50.824;4.408;2023-03-01T21:44:41;168.23;;;158.20;;
21099;SDS011;10708;50.824;4.408;2023-03-01T21:49:44;157.10;;;147.88;;
21099;SDS011;10708;50.824;4.408;2023-03-01T21:54:50;147.85;;;138.88;;
21099;SDS011;10708;50.824;4.408;2023-03-01T21:59:53;180.53;;;169.93;;
21099;SDS011;10708;50.824;4.408;2023-03-01T22:04:55;144.10;;;135.33;;
21099;SDS011;10708;50.824;4.408;2023-03-01T22:09:59;164.85;;;154.73;;
21099;SDS011;10708;50.824;4.408;2023-03-01T22:15:02;146.67;;;138.00;;
21099;SDS011;10708;50.824;4.408;2023-03-01T22:20:05;151.50;;;142.23;;
21099;SDS011;10708;50.824;4.408;2023-03-01T22:25:10;170.30;;;160.10;;
21099;SDS011;10708;50.824;4.408;2023-03-01T22:30:14;138.07;;;129.88;;
21099;SDS011;10708;50.824;4.408;2023-03-01T22:35:16;170.70;;;160.35;;
21099;SDS011;10708;50.824;4.408;2023-03-01T22:40:20;305.98;;;288.23;;
21099;SDS011;10708;50.824;4.408;2023-03-01T22:45:23;259.77;;;244.60;;
21099;SDS011;10708;50.824;4.408;2023-03-01T22:50:25;107.43;;;100.40;;
21099;SDS011;10708;50.824;4.408;2023-03-01T22:55:29;91.03;;;85.03;;
21099;SDS011;10708;50.824;4.408;2023-03-01T23:00:31;105.97;;;99.47;;
21099;SDS011;10708;50.824;4.408;2023-03-01T23:05:34;112.13;;;105.22;;
21099;SDS011;10708;50.824;4.408;2023-03-01T23:10:40;111.50;;;104.60;;
21099;SDS011;10708;50.824;4.408;2023-03-01T23:15:42;113.27;;;106.07;;
21099;SDS011;10708;50.824;4.408;2023-03-01T23:20:45;108.75;;;101.82;;
21099;SDS011;10708;50.824;4.408;2023-03-01T23:25:55;109.63;;;102.82;;
21099;SDS011;10708;50.824;4.408;2023-03-01T23:30:59;83.32;;;77.53;;
21099;SDS011;10708;50.824;4.408;2023-03-01T23:36:02;85.43;;;79.70;;
21099;SDS011;10708;50.824;4.408;2023-03-01T23:41:09;76.50;;;71.37;;
21099;SDS011;10708;50.824;4.408;2023-03-01T23:46:11;79.28;;;73.88;;
21099;SDS011;10708;50.824;4.408;2023-03-01T23:51:14;86.17;;;80.60;;
21099;SDS011;10708;50.824;4.408;2023-03-01T23:56:20;88.43;;;82.38;;
